• Join FlightAware (Why Join?)
  • Login
  • US Flag 
01:53PM EDT


 

Airport Tracker/Info


-or-


 

Live Flight TrackerFlight Track Log ✈ N2158U ✈ 18-Nov-2013 ✈ WY00 - KUVA

Flight Track Log - Related Links

Times and Time Zones

All times are in EST time to prevent confusion due to time zone crossing. See the N2158U flight status page for this flight to view local times or setup timezone preferences in your user account.

Time Position Orientation Groundspeed Altitude Reporting Facility
EST Latitude Longitude Course Direction KTS MPH feet Rate Location/Type
09:45AM 43.9100 -107.3656 154° Southeast 169 194 9,200  Level Denver Center
09:46AM 43.8456 -107.3211 154° Southeast 218 251 11,100 2,340 Climbing Salt Lake Center
09:47AM 43.7714 -107.2694 153° Southeast 275 316 14,000 2,820 Climbing Salt Lake Center
09:48AM 43.6989 -107.2114 150° Southeast 297 342 16,900 2,580 Climbing Salt Lake Center
09:49AM 43.6283 -107.1497 148° Southeast 302 348 19,300 2,460 Climbing Salt Lake Center
09:50AM 43.5572 -107.0878 148° Southeast 304 350 22,000 2,460 Climbing Salt Lake Center
09:51AM 43.4861 -107.0333 151° Southeast 295 339 24,400 2,160 Climbing Salt Lake Center
09:52AM 43.4022 -106.9894 159° South 292 336 26,500 1,920 Climbing Salt Lake Center
09:53AM 43.3156 -106.9378 157° South 307 353 28,400 1,620 Climbing Salt Lake Center
09:54AM 43.2333 -106.8825 154° Southeast 322 371 29,900 1,440 Climbing Salt Lake Center
09:55AM 43.1522 -106.8328 156° South 333 383 31,400 1,440 Climbing Salt Lake Center
09:56AM 43.0706 -106.7817 155° Southeast 336 387 32,900 1,500 Climbing Salt Lake Center
09:57AM 42.9747 -106.7225 156° South 337 388 34,500 1,320 Climbing Salt Lake Center
09:58AM 42.8944 -106.6744 156° South 331 381 35,600 1,140 Climbing Salt Lake Center
09:59AM 42.8008 -106.6150 155° Southeast 334 384 36,900 1,080 Climbing Denver Center
10:00AM 42.7203 -106.5667 156° South 331 381 37,900 780 Climbing Denver Center
10:01AM 42.6386 -106.5150 155° Southeast 338 389 38,500 600 Climbing Denver Center
10:02AM 42.5411 -106.4572 156° South 343 395 39,200 720 Climbing Denver Center
10:03AM 42.4556 -106.4025 155° Southeast 352 405 40,000 780 Climbing Denver Center
10:04AM 42.3586 -106.3442 156° South 345 397 40,900 480 Climbing Denver Center
10:05AM 42.2756 -106.2922 155° Southeast 345 397 41,000  Climbing Denver Center
10:06AM 42.1886 -106.2397 156° South 355 409 41,000  Level Denver Center
10:07AM 42.0858 -106.1797 157° South 360 414 41,000  Level Denver Center
10:08AM 41.9950 -106.1256 156° South 369 425 41,000  Level Denver Center
10:09AM 41.8908 -106.0619 156° South 369 425 41,000  Level Denver Center
10:10AM 41.7975 -106.0075 156° South 377 434 41,000  Level Denver Center
10:11AM 41.6903 -105.9431 156° South 378 435 41,000  Level Denver Center
10:12AM 41.5981 -105.8878 156° South 379 436 41,000  Level Denver Center
10:13AM 41.5072 -105.8350 156° South 375 432 41,000 -60 Level Denver Center
10:14AM 41.3992 -105.7694 156° South 380 437 40,900  Descending Denver Center
10:15AM 41.3094 -105.7192 157° South 370 426 41,000  Climbing Denver Center
10:16AM 41.2064 -105.6603 157° South 362 417 41,000  Level Denver Center
10:17AM 41.1169 -105.6067 156° South 366 421 41,000  Level Denver Center
10:18AM 41.0211 -105.5489 156° South 344 396 41,000  Level Denver Center
10:19AM 40.9478 -105.5097 158° South 325 374 41,000  Level Denver Center
10:21AM 40.8719 -105.4639 155° Southeast 302 348 41,000  Level Denver Center
10:22AM 40.7994 -105.4242 157° South 284 327 41,000  Level Denver Center
10:23AM 40.7169 -105.3750 156° South 274 315 41,000  Level Denver Center
10:24AM 40.6503 -105.3375 157° South 263 303 41,000  Level Denver Center
10:25AM 40.5769 -105.2978 158° South 281 323 41,000  Level Denver Center
10:26AM 40.4953 -105.2503 156° South 313 360 41,000  Level Denver Center
10:27AM 40.4086 -105.1961 155° Southeast 345 397 41,000  Level Denver Center
10:28AM 40.3172 -105.1439 156° South 358 412 41,000  Level Denver Center
10:29AM 40.2242 -105.0908 156° South 364 419 41,000  Level Denver Center
10:30AM 40.1131 -105.0283 157° South 363 418 41,000  Level Denver Center
10:31AM 40.0192 -104.9767 157° South 366 421 41,000  Level Denver Center
10:32AM 39.9239 -104.9258 158° South 375 432 41,000  Level Denver Center
10:33AM 39.8192 -104.8686 157° South 381 438 41,000  Level Denver Center
10:34AM 39.7186 -104.8103 156° South 371 427 41,000  Level Denver Center
10:35AM 39.6244 -104.7592 157° South 368 423 41,000  Level Denver Center
10:36AM 39.5228 -104.7028 157° South 371 427 41,000  Level Denver Center
10:37AM 39.4289 -104.6522 157° South 367 422 41,000  Level Denver Center
10:38AM 39.3447 -104.6042 156° South 366 421 41,000  Level Denver Center
10:39AM 39.2303 -104.5419 157° South 371 427 41,000  Level Denver Center
10:40AM 39.1364 -104.4906 157° South 369 425 41,000  Level Denver Center
10:41AM 39.0422 -104.4397 157° South 365 420 41,000  Level Denver Center
10:42AM 38.9472 -104.3869 157° South 370 426 41,000  Level Denver Center
10:43AM 38.8514 -104.3353 157° South 374 430 41,000  Level Denver Center
10:44AM 38.7564 -104.2825 157° South 373 429 41,000  Level Denver Center
10:45AM 38.6428 -104.2211 157° South 371 427 41,000  Level Denver Center
10:46AM 38.5675 -104.1789 156° South 370 426 41,000  Level Denver Center
10:47AM 38.4542 -104.1194 158° South 369 425 41,000  Level Denver Center
10:48AM 38.3489 -104.0642 158° South 367 422 41,000  Level Denver Center
10:49AM 38.2578 -104.0156 157° South 370 426 41,000  Level Denver Center
10:50AM 38.1511 -103.9597 158° South 371 427 41,000  Level Denver Center
10:52AM 38.0614 -103.9111 157° South 368 423 41,000  Level Denver Center
10:53AM 37.9694 -103.8631 158° South 369 425 41,000  Level Denver Center
10:54AM 37.8633 -103.8072 157° South 368 423 41,000  Level Denver Center
10:55AM 37.7414 -103.7428 157° South 368 423 41,000  Level Denver Center
10:56AM 37.6508 -103.6931 157° South 367 422 41,000  Level Denver Center
10:57AM 37.5589 -103.6456 158° South 368 423 41,000  Level Denver Center
10:58AM 37.4525 -103.5906 158° South 367 422 41,000  Level Denver Center
10:59AM 37.3617 -103.5433 158° South 367 422 41,000  Level Denver Center
11:00AM 37.2572 -103.4894 158° South 364 419 41,000  Level Denver Center
11:01AM 37.1678 -103.4439 158° South 361 415 41,000 -60 Level Denver Center
11:02AM 37.0653 -103.3919 158° South 356 410 40,900  Descending Denver Center
11:03AM 36.9775 -103.3472 158° South 354 407 41,000  Climbing Denver Center
11:04AM 36.8753 -103.2964 158° South 353 406 41,000  Level Denver Center
11:06AM 36.7594 -103.2358 157° South 355 409 41,000  Level Albuquerque Center
11:07AM 36.6575 -103.1828 157° South 355 409 41,000  Level Albuquerque Center
11:08AM 36.5767 -103.1425 158° South 351 404 41,000  Level Albuquerque Center
11:09AM 36.4692 -103.0886 158° South 352 405 41,000  Level Albuquerque Center
11:10AM 36.3767 -103.0428 158° South 353 406 41,000  Level Albuquerque Center
11:11AM 36.2842 -102.9961 158° South 354 407 41,000  Level Albuquerque Center
11:12AM 36.1911 -102.9486 158° South 356 410 41,000  Level Albuquerque Center
11:13AM 36.0986 -102.9025 158° South 355 409 41,000  Level Albuquerque Center
11:14AM 36.0119 -102.8606 159° South 357 411 41,000  Level Albuquerque Center
11:15AM 35.9008 -102.8042 158° South 360 414 41,000  Level Albuquerque Center
11:16AM 35.8086 -102.7556 157° South 361 415 41,000  Level Albuquerque Center
11:17AM 35.7172 -102.7094 158° South 358 412 41,000  Level Albuquerque Center
11:18AM 35.6269 -102.6650 158° South 353 406 41,000  Level Albuquerque Center
11:19AM 35.5253 -102.6156 158° South 352 405 41,000  Level Albuquerque Center
11:20AM 35.4275 -102.5700 159° South 350 403 41,000  Level Albuquerque Center
11:21AM 35.3372 -102.5261 158° South 350 403 41,000  Level Albuquerque Center
11:22AM 35.2458 -102.4819 158° South 352 405 41,000  Level Albuquerque Center
11:23AM 35.1553 -102.4381 158° South 353 406 41,000  Level Albuquerque Center
11:24AM 35.0631 -102.3939 159° South 355 409 41,000  Level Albuquerque Center
11:25AM 34.9711 -102.3503 159° South 356 410 41,000  Level Albuquerque Center
11:26AM 34.8608 -102.2961 158° South 358 412 41,000  Level Albuquerque Center
11:27AM 34.7689 -102.2517 158° South 357 411 41,000  Level Albuquerque Center
11:28AM 34.6775 -102.2053 157° South 358 412 41,000  Level Albuquerque Center
11:29AM 34.5858 -102.1617 159° South 355 409 41,000  Level Albuquerque Center
11:30AM 34.4944 -102.1183 159° South 354 407 41,000  Level Albuquerque Center
11:31AM 34.3844 -102.0642 158° South 356 410 41,000  Level Albuquerque Center
11:32AM 34.2917 -102.0203 159° South 358 412 41,000  Level Albuquerque Center
11:33AM 34.2011 -101.9775 159° South 353 406 41,000  Level Albuquerque Center
11:35AM 34.0739 -101.9156 158° South 353 406 41,000  Level Fort Worth Center
11:36AM 33.9922 -101.8792 160° South 352 405 41,000  Level Fort Worth Center
11:37AM 33.9003 -101.8356 159° South 354 407 41,000  Level Fort Worth Center
11:38AM 33.7914 -101.7817 158° South 354 407 41,000  Level Fort Worth Center
11:39AM 33.7006 -101.7381 158° South 354 407 41,000  Level Fort Worth Center
11:40AM 33.6083 -101.6953 159° South 355 409 41,000  Level Fort Worth Center
11:41AM 33.5169 -101.6533 159° South 353 406 41,000  Level Fort Worth Center
11:42AM 33.4264 -101.6108 159° South 351 404 41,000  Level Fort Worth Center
11:43AM 33.3350 -101.5697 159° South 351 404 41,000  Level Fort Worth Center
11:44AM 33.2236 -101.5181 159° South 356 410 41,000  Level Fort Worth Center
11:45AM 33.1328 -101.4761 159° South 353 406 41,000  Level Fort Worth Center
11:46AM 33.0394 -101.4331 159° South 357 411 41,000  Level Fort Worth Center
11:47AM 32.9375 -101.3864 159° South 359 413 41,000  Level Fort Worth Center
11:48AM 32.8442 -101.3436 159° South 360 414 41,000  Level Fort Worth Center
11:49AM 32.7506 -101.3000 159° South 362 417 41,000  Level Fort Worth Center
11:50AM 32.6586 -101.2578 159° South 358 412 41,000  Level Fort Worth Center
11:51AM 32.5647 -101.2161 159° South 359 413 41,000  Level Fort Worth Center
11:52AM 32.4528 -101.1644 159° South 360 414 41,000  Level Fort Worth Center
11:53AM 32.3583 -101.1219 159° South 363 418 41,000  Level Fort Worth Center
11:54AM 32.2653 -101.0794 159° South 360 414 41,000  Level Fort Worth Center
11:55AM 32.1728 -101.0378 159° South 356 410 41,000  Level Fort Worth Center
11:56AM 32.0656 -100.9900 159° South 358 412 41,000  Level Fort Worth Center
11:58AM 31.9722 -100.9475 159° South 358 412 41,000  Level Fort Worth Center
11:59AM 31.8800 -100.9053 159° South 355 409 41,000  Level Fort Worth Center
12:00PM 31.7878 -100.8644 159° South 352 405 41,000 -420 Level Fort Worth Center
12:01PM 31.6922 -100.8214 159° South 363 418 40,200 -720 Descending Fort Worth Center
12:02PM 31.5939 -100.7758 158° South 376 433 39,600 -600 Descending Fort Worth Center
12:03PM 31.4739 -100.7211 159° South 383 441 39,000 -300 Descending Fort Worth Center
12:04PM 31.3750 -100.6778 159° South 378 435 39,000  Level Fort Worth Center
12:04PM 31.3261 -100.6569 160° South 376 433 39,000 -120 Level Houston Center
12:05PM 31.2111 -100.6069 160° South 370 426 38,800 -840 Descending Houston Center
12:06PM 31.1114 -100.5636 160° South 379 436 37,300 -1,440 Descending Houston Center
12:07PM 31.0169 -100.5222 159° South 367 422 35,900 -1,680 Descending Houston Center
12:09PM 30.9239 -100.4825 160° South 359 413 33,900 -1,740 Descending Houston Center
12:10PM 30.8289 -100.4414 160° South 363 418 32,400 -1,560 Descending Houston Center
12:11PM 30.7342 -100.3997 159° South 362 417 30,700 -1,980 Descending Houston Center
12:12PM 30.6197 -100.3494 159° South 366 421 28,300 -2,160 Descending Houston Center
12:13PM 30.5231 -100.3078 160° South 368 423 26,300 -1,860 Descending Houston Center
12:14PM 30.4275 -100.2689 161° South 365 420 24,500 -1,800 Descending Houston Center
12:15PM 30.3242 -100.2253 160° South 365 420 22,700 -1,560 Descending Houston Center
12:16PM 30.2394 -100.1861 158° South 357 411 21,300 -1,440 Descending Houston Center
12:17PM 30.1483 -100.1464 159° South 347 399 19,800 -1,500 Descending Houston Center
12:18PM 30.0558 -100.1058 159° South 348 400 18,200 -1,620 Descending Houston Center
12:19PM 29.9644 -100.0658 159° South 346 398 16,500 -2,040 Descending Houston Center
12:20PM 29.8586 -100.0136 157° South 342 394 14,000 -2,160 Descending Houston Center
12:21PM 29.7733 -99.9822 162° South 331 381 12,100 -1,800 Descending Houston Center
12:22PM 29.6908 -99.9514 162° South 321 369 10,400 -1,560 Descending Houston Center
12:23PM 29.6114 -99.9181 160° South 312 359 8,900 -1,560 Descending Houston Center
12:24PM 29.5339 -99.8808 157° South 306 352 7,200 -1,320 Descending Houston Center
12:25PM 29.4639 -99.8506 159° South 283 326 6,200 -720 Descending Houston Center
12:26PM 29.3897 -99.8211 161° South 268 308 5,800 -420 Descending Houston Center